sensor_id;sensor_type;location;lat;lon;timestamp;temperature;humidity
74484;SHT31;62942;52.462;10.846;2023-04-09T00:00:00;4.6;97.8
74484;SHT31;62942;52.462;10.846;2023-04-09T00:01:00;4.6;97.8
74484;SHT31;62942;52.462;10.846;2023-04-09T00:02:10;4.6;97.8
74484;SHT31;62942;52.462;10.846;2023-04-09T00:03:10;4.6;97.8
74484;SHT31;62942;52.462;10.846;2023-04-09T00:04:20;4.7;97.8
74484;SHT31;62942;52.462;10.846;2023-04-09T00:05:20;4.6;97.7
74484;SHT31;62942;52.462;10.846;2023-04-09T00:06:30;4.7;97.7
74484;SHT31;62942;52.462;10.846;2023-04-09T00:07:30;4.7;97.7
74484;SHT31;62942;52.462;10.846;2023-04-09T00:08:40;4.7;97.7
74484;SHT31;62942;52.462;10.846;2023-04-09T00:09:50;4.7;97.8
74484;SHT31;62942;52.462;10.846;2023-04-09T00:10:50;4.7;97.8
74484;SHT31;62942;52.462;10.846;2023-04-09T00:11:50;4.7;97.8
74484;SHT31;62942;52.462;10.846;2023-04-09T00:12:50;4.7;97.7
74484;SHT31;62942;52.462;10.846;2023-04-09T00:14:00;4.7;97.7
74484;SHT31;62942;52.462;10.846;2023-04-09T00:15:00;4.7;97.8
74484;SHT31;62942;52.462;10.846;2023-04-09T00:16:00;4.7;97.7
74484;SHT31;62942;52.462;10.846;2023-04-09T00:17:10;4.7;97.8
74484;SHT31;62942;52.462;10.846;2023-04-09T00:18:20;4.7;97.7
74484;SHT31;62942;52.462;10.846;2023-04-09T00:19:20;4.7;97.7
74484;SHT31;62942;52.462;10.846;2023-04-09T00:20:30;4.7;97.7
74484;SHT31;62942;52.462;10.846;2023-04-09T00:21:30;4.7;97.8
74484;SHT31;62942;52.462;10.846;2023-04-09T00:22:40;4.7;97.8
74484;SHT31;62942;52.462;10.846;2023-04-09T00:23:50;4.7;97.7
74484;SHT31;62942;52.462;10.846;2023-04-09T00:25:00;4.7;97.8
74484;SHT31;62942;52.462;10.846;2023-04-09T00:26:10;4.7;97.8
74484;SHT31;62942;52.462;10.846;2023-04-09T00:27:10;4.7;97.7
74484;SHT31;62942;52.462;10.846;2023-04-09T00:28:20;4.7;97.8
74484;SHT31;62942;52.462;10.846;2023-04-09T00:29:30;4.7;97.8
74484;SHT31;62942;52.462;10.846;2023-04-09T00:30:40;4.6;97.7
74484;SHT31;62942;52.462;10.846;2023-04-09T00:31:40;4.6;97.7
74484;SHT31;62942;52.462;10.846;2023-04-09T00:32:50;4.6;97.7
74484;SHT31;62942;52.462;10.846;2023-04-09T00:33:50;4.6;97.7
74484;SHT31;62942;52.462;10.846;2023-04-09T00:34:50;4.6;97.7
74484;SHT31;62942;52.462;10.846;2023-04-09T00:36:00;4.6;97.7
74484;SHT31;62942;52.462;10.846;2023-04-09T00:37:09;4.6;97.8
74484;SHT31;62942;52.462;10.846;2023-04-09T00:38:20;4.6;97.8
74484;SHT31;62942;52.462;10.846;2023-04-09T00:39:20;4.6;97.8
74484;SHT31;62942;52.462;10.846;2023-04-09T00:40:29;4.6;97.7
74484;SHT31;62942;52.462;10.846;2023-04-09T00:41:30;4.6;97.8
74484;SHT31;62942;52.462;10.846;2023-04-09T00:42:30;4.6;97.8
74484;SHT31;62942;52.462;10.846;2023-04-09T00:43:40;4.6;97.8
74484;SHT31;62942;52.462;10.846;2023-04-09T00:44:50;4.5;97.7
74484;SHT31;62942;52.462;10.846;2023-04-09T00:46:00;4.5;97.7
74484;SHT31;62942;52.462;10.846;2023-04-09T00:47:09;4.5;97.7
74484;SHT31;62942;52.462;10.846;2023-04-09T00:48:10;4.5;97.7
74484;SHT31;62942;52.462;10.846;2023-04-09T00:49:20;4.5;97.8
74484;SHT31;62942;52.462;10.846;2023-04-09T00:50:20;4.5;97.7
74484;SHT31;62942;52.462;10.846;2023-04-09T00:51:29;4.5;97.8
74484;SHT31;62942;52.462;10.846;2023-04-09T00:52:30;4.5;97.7
74484;SHT31;62942;52.462;10.846;2023-04-09T00:53:40;4.5;97.7
74484;SHT31;62942;52.462;10.846;2023-04-09T00:54:40;4.5;97.7
74484;SHT31;62942;52.462;10.846;2023-04-09T00:55:50;4.5;97.7
74484;SHT31;62942;52.462;10.846;2023-04-09T00:57:00;4.5;97.8
74484;SHT31;62942;52.462;10.846;2023-04-09T00:57:59;4.5;97.7
74484;SHT31;62942;52.462;10.846;2023-04-09T00:59:10;4.5;97.7
74484;SHT31;62942;52.462;10.846;2023-04-09T01:00:19;4.5;97.7
74484;SHT31;62942;52.462;10.846;2023-04-09T01:01:29;4.5;97.7
74484;SHT31;62942;52.462;10.846;2023-04-09T01:02:39;4.5;97.7
74484;SHT31;62942;52.462;10.846;2023-04-09T01:03:39;4.5;97.7
74484;SHT31;62942;52.462;10.846;2023-04-09T01:04:40;4.5;97.7
74484;SHT31;62942;52.462;10.846;2023-04-09T01:05:53;4.4;97.7
74484;SHT31;62942;52.462;10.846;2023-04-09T01:06:50;4.4;97.7
74484;SHT31;62942;52.462;10.846;2023-04-09T01:08:00;4.4;97.7
74484;SHT31;62942;52.462;10.846;2023-04-09T01:09:12;4.3;97.7
74484;SHT31;62942;52.462;10.846;2023-04-09T01:10:22;4.3;97.7
74484;SHT31;62942;52.462;10.846;2023-04-09T01:11:23;4.3;97.7
74484;SHT31;62942;52.462;10.846;2023-04-09T01:12:31;4.3;97.7
74484;SHT31;62942;52.462;10.846;2023-04-09T01:13:41;4.2;97.7
74484;SHT31;62942;52.462;10.846;2023-04-09T01:14:42;4.2;97.7
74484;SHT31;62942;52.462;10.846;2023-04-09T01:15:41;4.2;97.6
74484;SHT31;62942;52.462;10.846;2023-04-09T01:16:51;4.1;97.6
74484;SHT31;62942;52.462;10.846;2023-04-09T01:18:01;4.1;97.6
74484;SHT31;62942;52.462;10.846;2023-04-09T01:19:00;4.1;97.6
74484;SHT31;62942;52.462;10.846;2023-04-09T01:20:11;4;97.6
74484;SHT31;62942;52.462;10.846;2023-04-09T01:21:10;4;97.6
74484;SHT31;62942;52.462;10.846;2023-04-09T01:22:30;3.9;97.6
74484;SHT31;62942;52.462;10.846;2023-04-09T01:23:32;3.9;97.6
74484;SHT31;62942;52.462;10.846;2023-04-09T01:24:41;3.9;97.6
74484;SHT31;62942;52.462;10.846;2023-04-09T01:25:52;3.9;97.5
74484;SHT31;62942;52.462;10.846;2023-04-09T01:26:53;3.9;97.5
74484;SHT31;62942;52.462;10.846;2023-04-09T01:28:11;3.8;97.5
74484;SHT31;62942;52.462;10.846;2023-04-09T01:29:09;3.8;97.5
74484;SHT31;62942;52.462;10.846;2023-04-09T01:30:09;3.7;97.5
74484;SHT31;62942;52.462;10.846;2023-04-09T01:31:20;3.7;97.4
74484;SHT31;62942;52.462;10.846;2023-04-09T01:32:19;3.7;97.4
74484;SHT31;62942;52.462;10.846;2023-04-09T01:33:30;3.7;97.4
74484;SHT31;62942;52.462;10.846;2023-04-09T01:34:29;3.6;97.4
74484;SHT31;62942;52.462;10.846;2023-04-09T01:35:29;3.6;97.3
74484;SHT31;62942;52.462;10.846;2023-04-09T01:36:39;3.6;97.3
74484;SHT31;62942;52.462;10.846;2023-04-09T01:37:39;3.6;97.3
74484;SHT31;62942;52.462;10.846;2023-04-09T01:38:49;3.6;97.3
74484;SHT31;62942;52.462;10.846;2023-04-09T01:39:49;3.5;97.3
74484;SHT31;62942;52.462;10.846;2023-04-09T01:40:59;3.5;97.3
74484;SHT31;62942;52.462;10.846;2023-04-09T01:41:59;3.5;97.2
74484;SHT31;62942;52.462;10.846;2023-04-09T01:42:59;3.5;97.2
74484;SHT31;62942;52.462;10.846;2023-04-09T01:44:09;3.4;97.2
74484;SHT31;62942;52.462;10.846;2023-04-09T01:45:19;3.4;97.2
74484;SHT31;62942;52.462;10.846;2023-04-09T01:46:20;3.4;97.2
74484;SHT31;62942;52.462;10.846;2023-04-09T01:47:29;3.4;97.2
74484;SHT31;62942;52.462;10.846;2023-04-09T01:48:39;3.4;97.2
74484;SHT31;62942;52.462;10.846;2023-04-09T01:49:39;3.3;97.2
74484;SHT31;62942;52.462;10.846;2023-04-09T01:50:49;3.4;97.3
74484;SHT31;62942;52.462;10.846;2023-04-09T01:51:49;3.3;97.2
74484;SHT31;62942;52.462;10.846;2023-04-09T01:52:59;3.3;97.2
74484;SHT31;62942;52.462;10.846;2023-04-09T01:53:59;3.3;97.2
74484;SHT31;62942;52.462;10.846;2023-04-09T01:55:09;3.3;97.2
74484;SHT31;62942;52.462;10.846;2023-04-09T01:56:09;3.3;97.2
74484;SHT31;62942;52.462;10.846;2023-04-09T01:57:19;3.3;97.2
74484;SHT31;62942;52.462;10.846;2023-04-09T01:58:29;3.3;97.2
74484;SHT31;62942;52.462;10.846;2023-04-09T01:59:29;3.3;97.2
74484;SHT31;62942;52.462;10.846;2023-04-09T02:00:30;3.2;97.2
74484;SHT31;62942;52.462;10.846;2023-04-09T02:01:32;3.2;97.2
74484;SHT31;62942;52.462;10.846;2023-04-09T02:02:41;3.2;97.2
74484;SHT31;62942;52.462;10.846;2023-04-09T02:03:50;3.2;97.3
74484;SHT31;62942;52.462;10.846;2023-04-09T02:04:59;3.2;97.3
74484;SHT31;62942;52.462;10.846;2023-04-09T02:06:12;3.2;97.3
74484;SHT31;62942;52.462;10.846;2023-04-09T02:07:22;3.2;97.2
74484;SHT31;62942;52.462;10.846;2023-04-09T02:08:20;3.2;97.3
74484;SHT31;62942;52.462;10.846;2023-04-09T02:09:30;3.2;97.3
74484;SHT31;62942;52.462;10.846;2023-04-09T02:10:39;3.2;97.3
74484;SHT31;62942;52.462;10.846;2023-04-09T02:11:49;3.2;97.3
74484;SHT31;62942;52.462;10.846;2023-04-09T02:12:50;3.2;97.3
74484;SHT31;62942;52.462;10.846;2023-04-09T02:13:59;3.2;97.3
74484;SHT31;62942;52.462;10.846;2023-04-09T02:15:10;3.1;97.3
74484;SHT31;62942;52.462;10.846;2023-04-09T02:16:19;3.1;97.3
74484;SHT31;62942;52.462;10.846;2023-04-09T02:17:29;3.1;97.3
74484;SHT31;62942;52.462;10.846;2023-04-09T02:18:29;3.1;97.3
74484;SHT31;62942;52.462;10.846;2023-04-09T02:19:37;3.1;97.4
74484;SHT31;62942;52.462;10.846;2023-04-09T02:20:29;3.1;97.3
74484;SHT31;62942;52.462;10.846;2023-04-09T02:21:39;3.1;97.4
74484;SHT31;62942;52.462;10.846;2023-04-09T02:22:49;3.1;97.4
74484;SHT31;62942;52.462;10.846;2023-04-09T02:23:59;3.1;97.4
74484;SHT31;62942;52.462;10.846;2023-04-09T02:25:09;3.1;97.4
74484;SHT31;62942;52.462;10.846;2023-04-09T02:26:19;3.1;97.4
74484;SHT31;62942;52.462;10.846;2023-04-09T02:27:29;3.1;97.4
74484;SHT31;62942;52.462;10.846;2023-04-09T02:28:39;3.1;97.4
74484;SHT31;62942;52.462;10.846;2023-04-09T02:29:49;3.1;97.4
74484;SHT31;62942;52.462;10.846;2023-04-09T02:30:49;3.1;97.4
74484;SHT31;62942;52.462;10.846;2023-04-09T02:31:59;3.1;97.4
74484;SHT31;62942;52.462;10.846;2023-04-09T02:32:59;3.1;97.4
74484;SHT31;62942;52.462;10.846;2023-04-09T02:33:59;3.1;97.4
74484;SHT31;62942;52.462;10.846;2023-04-09T02:35:09;3.1;97.5
74484;SHT31;62942;52.462;10.846;2023-04-09T02:36:10;3.1;97.5
74484;SHT31;62942;52.462;10.846;2023-04-09T02:37:19;3.1;97.5
74484;SHT31;62942;52.462;10.846;2023-04-09T02:38:19;3.1;97.5
74484;SHT31;62942;52.462;10.846;2023-04-09T02:39:29;3.1;97.5
74484;SHT31;62942;52.462;10.846;2023-04-09T02:40:39;3.2;97.5
74484;SHT31;62942;52.462;10.846;2023-04-09T02:41:39;3.2;97.5
74484;SHT31;62942;52.462;10.846;2023-04-09T02:42:50;3.2;97.5
74484;SHT31;62942;52.462;10.846;2023-04-09T02:43:49;3.2;97.5
74484;SHT31;62942;52.462;10.846;2023-04-09T02:44:49;3.2;97.5
74484;SHT31;62942;52.462;10.846;2023-04-09T02:45:49;3.2;97.6
74484;SHT31;62942;52.462;10.846;2023-04-09T02:46:59;3.2;97.6
74484;SHT31;62942;52.462;10.846;2023-04-09T02:48:09;3.2;97.6
74484;SHT31;62942;52.462;10.846;2023-04-09T02:49:09;3.2;97.6
74484;SHT31;62942;52.462;10.846;2023-04-09T02:50:09;3.2;97.6
74484;SHT31;62942;52.462;10.846;2023-04-09T02:51:19;3.3;97.6
74484;SHT31;62942;52.462;10.846;2023-04-09T02:52:19;3.3;97.6
74484;SHT31;62942;52.462;10.846;2023-04-09T02:53:29;3.3;97.6
74484;SHT31;62942;52.462;10.846;2023-04-09T02:54:39;3.3;97.6
74484;SHT31;62942;52.462;10.846;2023-04-09T02:55:49;3.3;97.7
74484;SHT31;62942;52.462;10.846;2023-04-09T02:56:59;3.3;97.6
74484;SHT31;62942;52.462;10.846;2023-04-09T02:57:59;3.3;97.7
74484;SHT31;62942;52.462;10.846;2023-04-09T02:58:59;3.4;97.7
74484;SHT31;62942;52.462;10.846;2023-04-09T03:00:10;3.4;97.7
74484;SHT31;62942;52.462;10.846;2023-04-09T03:01:09;3.4;97.7
74484;SHT31;62942;52.462;10.846;2023-04-09T03:02:09;3.4;97.7
74484;SHT31;62942;52.462;10.846;2023-04-09T03:03:09;3.4;97.7
74484;SHT31;62942;52.462;10.846;2023-04-09T03:04:19;3.4;97.7
74484;SHT31;62942;52.462;10.846;2023-04-09T03:05:29;3.4;97.8
74484;SHT31;62942;52.462;10.846;2023-04-09T03:06:39;3.4;97.8
74484;SHT31;62942;52.462;10.846;2023-04-09T03:07:39;3.4;97.8
74484;SHT31;62942;52.462;10.846;2023-04-09T03:08:49;3.5;97.8
74484;SHT31;62942;52.462;10.846;2023-04-09T03:09:59;3.5;97.8
74484;SHT31;62942;52.462;10.846;2023-04-09T03:11:09;3.5;97.8
74484;SHT31;62942;52.462;10.846;2023-04-09T03:12:09;3.5;97.8
74484;SHT31;62942;52.462;10.846;2023-04-09T03:13:09;3.5;97.8
74484;SHT31;62942;52.462;10.846;2023-04-09T03:14:09;3.5;97.8
74484;SHT31;62942;52.462;10.846;2023-04-09T03:15:19;3.6;97.8
74484;SHT31;62942;52.462;10.846;2023-04-09T03:16:29;3.6;97.8
74484;SHT31;62942;52.462;10.846;2023-04-09T03:17:39;3.6;97.8
74484;SHT31;62942;52.462;10.846;2023-04-09T03:18:49;3.6;97.8
74484;SHT31;62942;52.462;10.846;2023-04-09T03:19:49;3.6;97.9
74484;SHT31;62942;52.462;10.846;2023-04-09T03:20:49;3.6;97.9
74484;SHT31;62942;52.462;10.846;2023-04-09T03:21:49;3.6;97.8
74484;SHT31;62942;52.462;10.846;2023-04-09T03:22:59;3.6;97.8
74484;SHT31;62942;52.462;10.846;2023-04-09T03:23:59;3.6;97.9
74484;SHT31;62942;52.462;10.846;2023-04-09T03:25:09;3.6;97.9
74484;SHT31;62942;52.462;10.846;2023-04-09T03:26:09;3.6;97.9
74484;SHT31;62942;52.462;10.846;2023-04-09T03:27:19;3.6;97.9
74484;SHT31;62942;52.462;10.846;2023-04-09T03:28:19;3.6;97.9
74484;SHT31;62942;52.462;10.846;2023-04-09T03:29:29;3.6;97.9
74484;SHT31;62942;52.462;10.846;2023-04-09T03:30:39;3.7;97.9
74484;SHT31;62942;52.462;10.846;2023-04-09T03:31:39;3.7;97.9
74484;SHT31;62942;52.462;10.846;2023-04-09T03:32:49;3.7;97.9
74484;SHT31;62942;52.462;10.846;2023-04-09T03:33:59;3.7;97.9
74484;SHT31;62942;52.462;10.846;2023-04-09T03:35:09;3.7;98
74484;SHT31;62942;52.462;10.846;2023-04-09T03:36:09;3.7;97.9
74484;SHT31;62942;52.462;10.846;2023-04-09T03:37:19;3.7;97.9
74484;SHT31;62942;52.462;10.846;2023-04-09T03:38:29;3.8;98
74484;SHT31;62942;52.462;10.846;2023-04-09T03:39:39;3.7;97.9
74484;SHT31;62942;52.462;10.846;2023-04-09T03:40:49;3.8;97.9
74484;SHT31;62942;52.462;10.846;2023-04-09T03:41:49;3.8;98
74484;SHT31;62942;52.462;10.846;2023-04-09T03:42:49;3.8;98
74484;SHT31;62942;52.462;10.846;2023-04-09T03:43:49;3.8;98
74484;SHT31;62942;52.462;10.846;2023-04-09T03:44:59;3.8;98
74484;SHT31;62942;52.462;10.846;2023-04-09T03:45:59;3.8;98
74484;SHT31;62942;52.462;10.846;2023-04-09T03:47:09;3.8;98
74484;SHT31;62942;52.462;10.846;2023-04-09T03:48:09;3.9;98
74484;SHT31;62942;52.462;10.846;2023-04-09T03:49:19;3.9;98
74484;SHT31;62942;52.462;10.846;2023-04-09T03:50:29;3.9;98
74484;SHT31;62942;52.462;10.846;2023-04-09T03:51:39;3.9;97.9
74484;SHT31;62942;52.462;10.846;2023-04-09T03:52:39;3.9;97.9
74484;SHT31;62942;52.462;10.846;2023-04-09T03:53:49;3.9;97.9
74484;SHT31;62942;52.462;10.846;2023-04-09T03:54:59;3.9;97.9
74484;SHT31;62942;52.462;10.846;2023-04-09T03:56:09;3.9;98
74484;SHT31;62942;52.462;10.846;2023-04-09T03:57:09;3.9;97.9
74484;SHT31;62942;52.462;10.846;2023-04-09T03:58:09;3.9;98
74484;SHT31;62942;52.462;10.846;2023-04-09T03:59:19;3.9;98
74484;SHT31;62942;52.462;10.846;2023-04-09T04:00:19;3.9;98
74484;SHT31;62942;52.462;10.846;2023-04-09T04:01:29;3.9;98
74484;SHT31;62942;52.462;10.846;2023-04-09T04:02:29;3.9;98
74484;SHT31;62942;52.462;10.846;2023-04-09T04:03:29;3.9;98
74484;SHT31;62942;52.462;10.846;2023-04-09T04:04:39;3.9;98
74484;SHT31;62942;52.462;10.846;2023-04-09T04:05:39;4;98
74484;SHT31;62942;52.462;10.846;2023-04-09T04:06:49;4;98
74484;SHT31;62942;52.462;10.846;2023-04-09T04:07:49;4;98
74484;SHT31;62942;52.462;10.846;2023-04-09T04:08:59;4;98
74484;SHT31;62942;52.462;10.846;2023-04-09T04:09:59;4;98
74484;SHT31;62942;52.462;10.846;2023-04-09T04:11:09;4;98
74484;SHT31;62942;52.462;10.846;2023-04-09T04:12:09;4.1;98
74484;SHT31;62942;52.462;10.846;2023-04-09T04:13:19;4.1;98
74484;SHT31;62942;52.462;10.846;2023-04-09T04:14:19;4.1;98
74484;SHT31;62942;52.462;10.846;2023-04-09T04:15:29;4.1;98
74484;SHT31;62942;52.462;10.846;2023-04-09T04:16:39;4.1;98
74484;SHT31;62942;52.462;10.846;2023-04-09T04:17:49;4.1;98
74484;SHT31;62942;52.462;10.846;2023-04-09T04:18:59;4.1;97.9
74484;SHT31;62942;52.462;10.846;2023-04-09T04:20:09;4.2;98
74484;SHT31;62942;52.462;10.846;2023-04-09T04:21:11;4.2;98
74484;SHT31;62942;52.462;10.846;2023-04-09T04:22:09;4.2;97.9
74484;SHT31;62942;52.462;10.846;2023-04-09T04:23:19;4.2;98
74484;SHT31;62942;52.462;10.846;2023-04-09T04:24:19;4.2;97.9
74484;SHT31;62942;52.462;10.846;2023-04-09T04:25:19;4.2;98
74484;SHT31;62942;52.462;10.846;2023-04-09T04:26:29;4.2;98
74484;SHT31;62942;52.462;10.846;2023-04-09T04:27:29;4.3;98
74484;SHT31;62942;52.462;10.846;2023-04-09T04:28:39;4.3;97.9
74484;SHT31;62942;52.462;10.846;2023-04-09T04:29:39;4.3;97.9
74484;SHT31;62942;52.462;10.846;2023-04-09T04:30:49;4.3;98
74484;SHT31;62942;52.462;10.846;2023-04-09T04:31:49;4.3;98
74484;SHT31;62942;52.462;10.846;2023-04-09T04:32:59;4.3;97.9
74484;SHT31;62942;52.462;10.846;2023-04-09T04:33:59;4.3;97.9
74484;SHT31;62942;52.462;10.846;2023-04-09T04:35:09;4.3;97.9
74484;SHT31;62942;52.462;10.846;2023-04-09T04:36:10;4.4;97.9
74484;SHT31;62942;52.462;10.846;2023-04-09T04:37:19;4.4;97.9
74484;SHT31;62942;52.462;10.846;2023-04-09T04:38:29;4.4;97.9
74484;SHT31;62942;52.462;10.846;2023-04-09T04:39:39;4.4;97.9
74484;SHT31;62942;52.462;10.846;2023-04-09T04:40:39;4.4;97.9
74484;SHT31;62942;52.462;10.846;2023-04-09T04:41:39;4.4;97.9
74484;SHT31;62942;52.462;10.846;2023-04-09T04:42:49;4.5;97.9
74484;SHT31;62942;52.462;10.846;2023-04-09T04:43:49;4.5;97.8
74484;SHT31;62942;52.462;10.846;2023-04-09T04:44:59;4.5;97.8
74484;SHT31;62942;52.462;10.846;2023-04-09T04:46:09;4.5;97.8
74484;SHT31;62942;52.462;10.846;2023-04-09T04:47:09;4.5;97.8
74484;SHT31;62942;52.462;10.846;2023-04-09T04:48:19;4.6;97.8
74484;SHT31;62942;52.462;10.846;2023-04-09T04:49:19;4.6;97.8
74484;SHT31;62942;52.462;10.846;2023-04-09T04:50:29;4.6;97.8
74484;SHT31;62942;52.462;10.846;2023-04-09T04:51:29;4.7;97.8
74484;SHT31;62942;52.462;10.846;2023-04-09T04:52:39;4.7;97.8
74484;SHT31;62942;52.462;10.846;2023-04-09T04:53:39;4.7;97.8
74484;SHT31;62942;52.462;10.846;2023-04-09T04:54:49;4.8;97.8
74484;SHT31;62942;52.462;10.846;2023-04-09T04:55:49;4.8;97.8
74484;SHT31;62942;52.462;10.846;2023-04-09T04:56:49;4.8;97.8
74484;SHT31;62942;52.462;10.846;2023-04-09T04:57:59;4.8;97.8
74484;SHT31;62942;52.462;10.846;2023-04-09T04:59:09;4.9;97.7
74484;SHT31;62942;52.462;10.846;2023-04-09T05:00:09;4.9;97.7
74484;SHT31;62942;52.462;10.846;2023-04-09T05:01:19;4.9;97.7
74484;SHT31;62942;52.462;10.846;2023-04-09T05:02:29;4.9;97.7
74484;SHT31;62942;52.462;10.846;2023-04-09T05:03:29;4.9;97.7
74484;SHT31;62942;52.462;10.846;2023-04-09T05:04:39;4.9;97.7
74484;SHT31;62942;52.462;10.846;2023-04-09T05:05:49;4.9;97.6
74484;SHT31;62942;52.462;10.846;2023-04-09T05:06:49;5;97.6
74484;SHT31;62942;52.462;10.846;2023-04-09T05:07:49;5;97.6
74484;SHT31;62942;52.462;10.846;2023-04-09T05:08:59;5;97.6
74484;SHT31;62942;52.462;10.846;2023-04-09T05:10:09;5;97.6
74484;SHT31;62942;52.462;10.846;2023-04-09T05:11:10;5;97.5
74484;SHT31;62942;52.462;10.846;2023-04-09T05:12:19;5.1;97.5
74484;SHT31;62942;52.462;10.846;2023-04-09T05:13:19;5.1;97.5
74484;SHT31;62942;52.462;10.846;2023-04-09T05:14:29;5.1;97.5
74484;SHT31;62942;52.462;10.846;2023-04-09T05:15:29;5.1;97.4
74484;SHT31;62942;52.462;10.846;2023-04-09T05:16:39;5.1;97.4
74484;SHT31;62942;52.462;10.846;2023-04-09T05:17:49;5.1;97.4
74484;SHT31;62942;52.462;10.846;2023-04-09T05:18:59;5.1;97.3
74484;SHT31;62942;52.462;10.846;2023-04-09T05:19:59;5.1;97.3
74484;SHT31;62942;52.462;10.846;2023-04-09T05:21:09;5.2;97.2
74484;SHT31;62942;52.462;10.846;2023-04-09T05:22:09;5.2;97.2
74484;SHT31;62942;52.462;10.846;2023-04-09T05:23:19;5.2;97.1
74484;SHT31;62942;52.462;10.846;2023-04-09T05:24:29;5.2;97
74484;SHT31;62942;52.462;10.846;2023-04-09T05:25:29;5.2;97.1
74484;SHT31;62942;52.462;10.846;2023-04-09T05:26:39;5.2;97
74484;SHT31;62942;52.462;10.846;2023-04-09T05:27:39;5.2;97
74484;SHT31;62942;52.462;10.846;2023-04-09T05:28:49;5.2;96.9
74484;SHT31;62942;52.462;10.846;2023-04-09T05:29:49;5.2;96.8
74484;SHT31;62942;52.462;10.846;2023-04-09T05:30:59;5.2;96.8
74484;SHT31;62942;52.462;10.846;2023-04-09T05:31:59;5.2;96.7
74484;SHT31;62942;52.462;10.846;2023-04-09T05:33:09;5.3;96.7
74484;SHT31;62942;52.462;10.846;2023-04-09T05:34:19;5.3;96.6
74484;SHT31;62942;52.462;10.846;2023-04-09T05:35:19;5.3;96.6
74484;SHT31;62942;52.462;10.846;2023-04-09T05:36:29;5.3;96.4
74484;SHT31;62942;52.462;10.846;2023-04-09T05:37:39;5.3;96.3
74484;SHT31;62942;52.462;10.846;2023-04-09T05:38:39;5.3;96.3
74484;SHT31;62942;52.462;10.846;2023-04-09T05:39:49;5.3;96.2
74484;SHT31;62942;52.462;10.846;2023-04-09T05:40:49;5.3;96.2
74484;SHT31;62942;52.462;10.846;2023-04-09T05:41:59;5.3;96
74484;SHT31;62942;52.462;10.846;2023-04-09T05:43:09;5.3;96
74484;SHT31;62942;52.462;10.846;2023-04-09T05:44:19;5.3;95.9
74484;SHT31;62942;52.462;10.846;2023-04-09T05:45:19;5.4;95.8
74484;SHT31;62942;52.462;10.846;2023-04-09T05:46:19;5.4;95.7
74484;SHT31;62942;52.462;10.846;2023-04-09T05:47:29;5.4;95.6
74484;SHT31;62942;52.462;10.846;2023-04-09T05:48:29;5.4;95.5
74484;SHT31;62942;52.462;10.846;2023-04-09T05:49:39;5.4;95.5
74484;SHT31;62942;52.462;10.846;2023-04-09T05:50:49;5.4;95.4
74484;SHT31;62942;52.462;10.846;2023-04-09T05:51:59;5.5;95.3
74484;SHT31;62942;52.462;10.846;2023-04-09T05:53:09;5.5;95.2
74484;SHT31;62942;52.462;10.846;2023-04-09T05:54:19;5.5;95.1
74484;SHT31;62942;52.462;10.846;2023-04-09T05:55:19;5.5;95.1
74484;SHT31;62942;52.462;10.846;2023-04-09T05:56:29;5.6;95
74484;SHT31;62942;52.462;10.846;2023-04-09T05:57:29;5.6;95
74484;SHT31;62942;52.462;10.846;2023-04-09T05:58:29;5.6;94.9
74484;SHT31;62942;52.462;10.846;2023-04-09T05:59:39;5.6;94.9
74484;SHT31;62942;52.462;10.846;2023-04-09T06:00:49;5.7;94.8
74484;SHT31;62942;52.462;10.846;2023-04-09T06:01:59;5.7;94.7
74484;SHT31;62942;52.462;10.846;2023-04-09T06:02:59;5.7;94.6
74484;SHT31;62942;52.462;10.846;2023-04-09T06:04:09;5.7;94.6
74484;SHT31;62942;52.462;10.846;2023-04-09T06:05:19;5.7;94.5
74484;SHT31;62942;52.462;10.846;2023-04-09T06:06:19;5.7;94.3
74484;SHT31;62942;52.462;10.846;2023-04-09T06:07:29;5.7;94.3
74484;SHT31;62942;52.462;10.846;2023-04-09T06:08:29;5.7;94.2
74484;SHT31;62942;52.462;10.846;2023-04-09T06:09:39;5.7;94.1
74484;SHT31;62942;52.462;10.846;2023-04-09T06:10:49;5.7;94
74484;SHT31;62942;52.462;10.846;2023-04-09T06:11:59;5.7;93.9
74484;SHT31;62942;52.462;10.846;2023-04-09T06:13:09;5.8;93.8
74484;SHT31;62942;52.462;10.846;2023-04-09T06:14:09;5.8;93.8
74484;SHT31;62942;52.462;10.846;2023-04-09T06:15:19;5.8;93.7
74484;SHT31;62942;52.462;10.846;2023-04-09T06:16:19;5.8;93.7
74484;SHT31;62942;52.462;10.846;2023-04-09T06:17:29;5.8;93.6
74484;SHT31;62942;52.462;10.846;2023-04-09T06:18:39;5.8;93.5
74484;SHT31;62942;52.462;10.846;2023-04-09T06:19:49;5.8;93.4
74484;SHT31;62942;52.462;10.846;2023-04-09T06:20:49;5.8;93.4
74484;SHT31;62942;52.462;10.846;2023-04-09T06:21:59;5.8;93.4
74484;SHT31;62942;52.462;10.846;2023-04-09T06:23:09;5.9;93.3
74484;SHT31;62942;52.462;10.846;2023-04-09T06:24:19;5.8;93.2
74484;SHT31;62942;52.462;10.846;2023-04-09T06:25:29;5.9;93.2
74484;SHT31;62942;52.462;10.846;2023-04-09T06:26:39;5.9;93.1
74484;SHT31;62942;52.462;10.846;2023-04-09T06:27:39;5.9;93.1
74484;SHT31;62942;52.462;10.846;2023-04-09T06:28:49;5.9;92.9
74484;SHT31;62942;52.462;10.846;2023-04-09T06:29:59;5.9;93
74484;SHT31;62942;52.462;10.846;2023-04-09T06:30:59;5.9;93
74484;SHT31;62942;52.462;10.846;2023-04-09T06:32:09;5.9;92.9
74484;SHT31;62942;52.462;10.846;2023-04-09T06:33:19;6;92.8
74484;SHT31;62942;52.462;10.846;2023-04-09T06:34:19;6;92.8
74484;SHT31;62942;52.462;10.846;2023-04-09T06:35:29;6;92.8
74484;SHT31;62942;52.462;10.846;2023-04-09T06:36:39;6;92.7
74484;SHT31;62942;52.462;10.846;2023-04-09T06:37:49;6.1;92.7
74484;SHT31;62942;52.462;10.846;2023-04-09T06:38:59;6.1;92.6
74484;SHT31;62942;52.462;10.846;2023-04-09T06:40:09;6.1;92.4
74484;SHT31;62942;52.462;10.846;2023-04-09T06:41:19;6.1;92.5
74484;SHT31;62942;52.462;10.846;2023-04-09T06:42:19;6.1;92.3
74484;SHT31;62942;52.462;10.846;2023-04-09T06:43:19;6.1;92.1
74484;SHT31;62942;52.462;10.846;2023-04-09T06:44:29;6.1;91.9
74484;SHT31;62942;52.462;10.846;2023-04-09T06:45:39;6.1;92
74484;SHT31;62942;52.462;10.846;2023-04-09T06:46:49;6.1;92
74484;SHT31;62942;52.462;10.846;2023-04-09T06:47:49;6.1;91.9
74484;SHT31;62942;52.462;10.846;2023-04-09T06:48:59;6.2;91.9
74484;SHT31;62942;52.462;10.846;2023-04-09T06:50:09;6.2;91.9
74484;SHT31;62942;52.462;10.846;2023-04-09T06:51:19;6.2;91.8
74484;SHT31;62942;52.462;10.846;2023-04-09T06:52:29;6.2;91.8
74484;SHT31;62942;52.462;10.846;2023-04-09T06:53:39;6.2;91.8
74484;SHT31;62942;52.462;10.846;2023-04-09T06:54:39;6.2;91.8
74484;SHT31;62942;52.462;10.846;2023-04-09T06:55:39;6.2;91.7
74484;SHT31;62942;52.462;10.846;2023-04-09T06:56:49;6.2;91.6
74484;SHT31;62942;52.462;10.846;2023-04-09T06:57:59;6.2;91.5
74484;SHT31;62942;52.462;10.846;2023-04-09T06:59:09;6.2;91.6
74484;SHT31;62942;52.462;10.846;2023-04-09T07:00:09;6.2;91.5
74484;SHT31;62942;52.462;10.846;2023-04-09T07:01:10;6.2;91.4
74484;SHT31;62942;52.462;10.846;2023-04-09T07:02:09;6.2;91.4
74484;SHT31;62942;52.462;10.846;2023-04-09T07:03:09;6.2;91.5
74484;SHT31;62942;52.462;10.846;2023-04-09T07:04:19;6.2;91.4
74484;SHT31;62942;52.462;10.846;2023-04-09T07:05:29;6.2;91.4
74484;SHT31;62942;52.462;10.846;2023-04-09T07:06:39;6.2;91.3
74484;SHT31;62942;52.462;10.846;2023-04-09T07:07:49;6.3;91.2
74484;SHT31;62942;52.462;10.846;2023-04-09T07:08:49;6.3;91.2
74484;SHT31;62942;52.462;10.846;2023-04-09T07:09:59;6.3;91.2
74484;SHT31;62942;52.462;10.846;2023-04-09T07:11:09;6.3;91.1
74484;SHT31;62942;52.462;10.846;2023-04-09T07:12:25;6.3;91.1